Time;durP1;ratioP1;P1;durP2;ratioP2;P2;SDS_P1;SDS_P2;PMS_P1;PMS_P2;Temp;Humidity;BMP_temperature;BMP_pressure;BME280_temperature;BME280_humidity;BME280_pressure;Samples;Min_cycle;Max_cycle;Signal;HPM_P1;HPM_P2
2022/07/31 00:00:30;;;;;;;;;;;;;;;-142.75;100.00;76499.44;5015057;28;19913;-65
2022/07/31 00:02:56;;;;;;;;;;;;;;;-142.75;100.00;76493.53;5015064;28;19913;-65
2022/07/31 00:05:22;;;;;;;;;;;;;;;-142.75;100.00;76487.63;5014718;28;19972;-64
2022/07/31 00:07:48;;;;;;;;;;;;;;;-142.75;100.00;76479.75;5015671;28;19913;-64
2022/07/31 00:10:13;;;;;;;;;;;;;;;-142.75;100.00;76475.81;5016343;28;19920;-65
2022/07/31 00:12:38;;;;;;;;;;;;;;;-142.75;100.00;76465.97;5016255;28;19921;-64
2022/07/31 00:15:04;;;;;;;;;;;;;;;-142.75;100.00;76464.00;5014124;28;19924;-65
2022/07/31 00:17:30;;;;;;;;;;;;;;;-142.75;100.00;76465.97;5013554;28;20287;-65
2022/07/31 00:19:55;;;;;;;;;;;;;;;-142.75;100.00;76458.09;5015271;28;19913;-65
2022/07/31 00:22:20;;;;;;;;;;;;;;;-142.75;100.00;76460.06;4998210;28;19913;-64
2022/07/31 00:24:45;;;;;;;;;;;;;;;-142.75;100.00;76456.13;5015568;28;20024;-64
2022/07/31 00:27:11;;;;;;;;;;;;;;;-142.75;100.00;76458.09;5015566;28;19913;-65
2022/07/31 00:29:36;;;;;;;;;;;;;;;-142.75;100.00;76452.19;4998211;28;19920;-65
2022/07/31 00:32:02;;;;;;;;;;;;;;;-142.75;100.00;76444.31;5015867;28;19918;-65
2022/07/31 00:34:27;;;;;;;;;;;;;;;-142.75;100.00;76446.28;5015976;28;20330;-65
2022/07/31 00:36:52;;;;;;;;;;;;;;;-142.75;100.00;76450.22;5015200;28;19918;-65
2022/07/31 00:39:17;;;;;;;;;;;;;;;-142.75;100.00;76452.19;5015867;28;19921;-65
2022/07/31 00:41:43;;;;;;;;;;;;;;;-142.75;100.00;76458.09;5016021;28;19920;-64
2022/07/31 00:44:10;;;;;;;;;;;;;;;-142.75;100.00;76452.19;5015841;28;19913;-64
2022/07/31 00:46:35;;;;;;;;;;;;;;;-142.75;100.00;76452.19;5015231;28;19918;-64
2022/07/31 00:49:00;;;;;;;;;;;;;;;-142.75;100.00;76456.13;5015416;28;19989;-65
2022/07/31 00:51:25;;;;;;;;;;;;;;;-142.75;100.00;76456.13;5015784;28;19913;-65
2022/07/31 00:53:50;;;;;;;;;;;;;;;-142.75;100.00;76456.13;5015596;28;19914;-64
2022/07/31 00:56:16;;;;;;;;;;;;;;;-142.75;100.00;76456.13;5015479;28;19920;-65
2022/07/31 00:58:41;;;;;;;;;;;;;;;-142.75;100.00;76460.06;5015138;28;19913;-64
2022/07/31 01:01:06;;;;;;;;;;;;;;;-142.75;100.00;76456.13;4998056;28;20303;-65
2022/07/31 01:03:31;;;;;;;;;;;;;;;-142.75;100.00;76456.13;5015744;28;19913;-65
2022/07/31 01:05:56;;;;;;;;;;;;;;;-142.75;100.00;76446.28;5015069;28;19917;-65
2022/07/31 01:08:22;;;;;;;;;;;;;;;-142.75;100.00;76456.13;5015054;28;19967;-65
2022/07/31 01:10:51;;;;;;;;;;;;;;;-142.75;100.00;76452.19;5015470;28;19914;-64
2022/07/31 01:13:23;;;;;;;;;;;;;;;-142.75;100.00;76444.31;5015372;28;20444;-64
2022/07/31 01:15:49;;;;;;;;;;;;;;;-142.75;100.00;76450.22;5015396;28;19920;-65
2022/07/31 01:18:15;;;;;;;;;;;;;;;-142.75;100.00;76448.25;4997408;28;19913;-64
2022/07/31 01:20:42;;;;;;;;;;;;;;;-142.75;100.00;76452.19;5015065;28;19917;-64
2022/07/31 01:23:25;;;;;;;;;;;;;;;-142.75;100.00;76452.19;5015096;28;19914;-64
2022/07/31 01:26:03;;;;;;;;;;;;;;;-142.75;100.00;76458.09;5015495;28;19922;-64
2022/07/31 01:28:50;;;;;;;;;;;;;;;-142.75;100.00;76460.06;5016437;28;19929;-65
2022/07/31 01:31:17;;;;;;;;;;;;;;;-142.75;100.00;76467.94;5017548;28;19914;-65
2022/07/31 01:33:47;;;;;;;;;;;;;;;-142.75;100.00;76475.81;5019447;28;19977;-65
2022/07/31 01:36:15;;;;;;;;;;;;;;;-142.75;100.00;76471.88;5017710;28;20354;-64
2022/07/31 01:38:43;;;;;;;;;;;;;;;-142.75;100.00;76467.94;5019174;28;19920;-65
2022/07/31 01:41:11;;;;;;;;;;;;;;;-142.75;100.00;76467.94;5019160;28;19917;-64
2022/07/31 01:43:38;;;;;;;;;;;;;;;-142.75;100.00;76471.88;5018296;28;19914;-65
2022/07/31 01:46:06;;;;;;;;;;;;;;;-142.75;100.00;76471.88;5017698;28;19924;-65
2022/07/31 01:48:32;;;;;;;;;;;;;;;-142.75;100.00;76467.94;5017736;28;19914;-65
2022/07/31 01:50:58;;;;;;;;;;;;;;;-142.75;100.00;76471.88;5017609;28;19914;-65
2022/07/31 01:53:24;;;;;;;;;;;;;;;-142.75;100.00;76467.94;5017854;28;19974;-65
2022/07/31 01:55:51;;;;;;;;;;;;;;;-142.75;100.00;76467.94;5016963;28;19953;-65
2022/07/31 01:58:17;;;;;;;;;;;;;;;-142.75;100.00;76471.88;5014779;28;19913;-64
2022/07/31 02:00:43;;;;;;;;;;;;;;;-142.75;100.00;76473.84;5014150;28;20457;-64
2022/07/31 02:03:09;;;;;;;;;;;;;;;-142.75;100.00;76471.88;4996984;28;19948;-64
2022/07/31 02:05:35;;;;;;;;;;;;;;;-142.75;100.00;76481.72;4996157;28;19959;-65
2022/07/31 02:08:01;;;;;;;;;;;;;;;-142.75;100.00;76475.81;5014268;28;19917;-65
2022/07/31 02:10:28;;;;;;;;;;;;;;;-142.75;100.00;76483.69;5014141;28;19914;-64
2022/07/31 02:12:54;;;;;;;;;;;;;;;-142.75;100.00;76475.81;5014089;28;19913;-65
2022/07/31 02:15:20;;;;;;;;;;;;;;;-142.75;100.00;76475.81;5013716;28;19920;-65
2022/07/31 02:17:45;;;;;;;;;;;;;;;-142.75;100.00;76471.88;5013753;28;19913;-64
2022/07/31 02:20:11;;;;;;;;;;;;;;;-142.75;100.00;76465.97;5013455;28;19914;-65
2022/07/31 02:22:37;;;;;;;;;;;;;;;-142.75;100.00;76464.00;5014039;28;19914;-64
2022/07/31 02:25:05;;;;;;;;;;;;;;;-142.75;100.00;76460.06;5013649;28;19918;-64
2022/07/31 02:27:31;;;;;;;;;;;;;;;-142.75;100.00;76460.06;4995908;28;20302;-65
2022/07/31 02:29:58;;;;;;;;;;;;;;;-142.75;100.00;76460.06;5013364;28;19914;-65
2022/07/31 02:32:24;;;;;;;;;;;;;;;-142.75;100.00;76460.06;5013340;28;20003;-65
2022/07/31 02:34:50;;;;;;;;;;;;;;;-142.75;100.00;76465.97;5013467;28;19917;-64
2022/07/31 02:37:16;;;;;;;;;;;;;;;-142.75;100.00;76465.97;5012925;28;19922;-64
2022/07/31 02:39:42;;;;;;;;;;;;;;;-142.75;100.00;76462.03;5013415;28;19917;-65
2022/07/31 02:42:07;;;;;;;;;;;;;;;-142.75;100.00;76460.06;5014076;28;19913;-65
2022/07/31 02:44:36;;;;;;;;;;;;;;;-142.75;100.00;76452.19;5013431;28;19992;-65
2022/07/31 02:47:03;;;;;;;;;;;;;;;-142.75;100.00;76454.16;5012841;28;19936;-65
2022/07/31 02:49:29;;;;;;;;;;;;;;;-142.75;100.00;76460.06;5013160;28;20345;-64
2022/07/31 02:51:55;;;;;;;;;;;;;;;-142.75;100.00;76460.06;5013248;28;19975;-64
2022/07/31 02:54:21;;;;;;;;;;;;;;;-142.75;100.00;76464.00;5012994;28;19918;-65
2022/07/31 02:56:46;;;;;;;;;;;;;;;-142.75;100.00;76469.91;5012887;28;19936;-64
2022/07/31 02:59:13;;;;;;;;;;;;;;;-142.75;100.00;76475.81;5012364;28;20419;-64
2022/07/31 03:01:38;;;;;;;;;;;;;;;-142.75;100.00;76471.88;5013355;28;19920;-64
2022/07/31 03:04:03;;;;;;;;;;;;;;;-142.75;100.00;76469.91;5013190;28;19913;-64
2022/07/31 03:06:29;;;;;;;;;;;;;;;-142.75;100.00;76467.94;5012880;28;20358;-64
2022/07/31 03:08:54;;;;;;;;;;;;;;;-142.75;100.00;76462.03;5012830;28;19913;-65
2022/07/31 03:11:20;;;;;;;;;;;;;;;-142.75;100.00;76462.03;5017820;28;19928;-63
2022/07/31 03:13:46;;;;;;;;;;;;;;;-142.75;100.00;76462.03;5052155;28;20402;-64
2022/07/31 03:16:11;;;;;;;;;;;;;;;-142.75;100.00;76460.06;5052647;28;19920;-65
2022/07/31 03:18:38;;;;;;;;;;;;;;;-142.75;100.00;76462.03;5052656;28;20328;-64
2022/07/31 03:21:03;;;;;;;;;;;;;;;-142.75;100.00;76465.97;5052793;28;19920;-64
2022/07/31 03:23:35;;;;;;;;;;;;;;;-142.75;100.00;76467.94;5053074;28;19913;-64
2022/07/31 03:26:00;;;;;;;;;;;;;;;-142.75;100.00;76464.00;5052733;28;19921;-65
2022/07/31 03:28:26;;;;;;;;;;;;;;;-142.75;100.00;76465.97;5034895;28;20293;-64
2022/07/31 03:30:52;;;;;;;;;;;;;;;-142.75;100.00;76477.78;5053506;28;19999;-65
2022/07/31 03:33:17;;;;;;;;;;;;;;;-142.75;100.00;76479.75;5056126;28;20378;-64
2022/07/31 03:35:42;;;;;;;;;;;;;;;-142.75;100.00;76475.81;5056137;28;19992;-64
2022/07/31 03:38:07;;;;;;;;;;;;;;;-142.75;100.00;76479.75;5056159;28;19955;-64
2022/07/31 03:40:33;;;;;;;;;;;;;;;-142.75;100.00;76483.69;5056591;28;19912;-64
2022/07/31 03:42:59;;;;;;;;;;;;;;;-142.75;100.00;76485.66;5056949;28;19913;-64
2022/07/31 03:45:25;;;;;;;;;;;;;;;-142.75;100.00;76495.50;5055983;28;19920;-64
2022/07/31 03:47:50;;;;;;;;;;;;;;;-142.75;100.00;76495.50;5054755;28;19917;-64
2022/07/31 03:50:16;;;;;;;;;;;;;;;-142.75;100.00;76495.50;5055033;28;19966;-64
2022/07/31 03:52:42;;;;;;;;;;;;;;;-142.75;100.00;76493.53;5056787;28;19912;-63
2022/07/31 03:55:07;;;;;;;;;;;;;;;-142.75;100.00;76495.50;5056346;28;19920;-64
2022/07/31 03:57:33;;;;;;;;;;;;;;;-142.75;100.00;76495.50;5055771;28;19917;-64
2022/07/31 04:00:01;;;;;;;;;;;;;;;-142.75;100.00;76495.50;5055974;28;19936;-65
2022/07/31 04:02:26;;;;;;;;;;;;;;;-142.75;100.00;76499.44;5056000;28;19913;-65
2022/07/31 04:04:52;;;;;;;;;;;;;;;-142.75;100.00;76503.38;5055927;28;19924;-64
2022/07/31 04:07:18;;;;;;;;;;;;;;;-142.75;100.00;76503.38;5055837;28;20412;-64
2022/07/31 04:09:43;;;;;;;;;;;;;;;-142.75;100.00;76509.28;5058614;28;19940;-65
2022/07/31 04:12:08;;;;;;;;;;;;;;;-142.75;100.00;76499.44;5058170;28;19920;-64
2022/07/31 04:14:33;;;;;;;;;;;;;;;-142.75;100.00;76493.53;5058172;28;19958;-64
2022/07/31 04:16:59;;;;;;;;;;;;;;;-142.75;100.00;76495.50;5058685;28;19920;-65
2022/07/31 04:19:24;;;;;;;;;;;;;;;-142.75;100.00;76495.50;5059101;28;20385;-65
2022/07/31 04:21:49;;;;;;;;;;;;;;;-142.75;100.00;76505.34;5058893;28;19912;-65
2022/07/31 04:24:17;;;;;;;;;;;;;;;-142.75;100.00;76499.44;5058137;28;19948;-64
2022/07/31 04:26:42;;;;;;;;;;;;;;;-142.75;100.00;76497.47;5056571;28;19921;-65
2022/07/31 04:29:07;;;;;;;;;;;;;;;-142.75;100.00;76507.31;5055545;28;19912;-64
2022/07/31 04:31:33;;;;;;;;;;;;;;;-142.75;100.00;76507.31;5037758;28;19913;-64
2022/07/31 04:33:58;;;;;;;;;;;;;;;-142.75;100.00;76503.38;5055924;28;19913;-64
2022/07/31 04:36:23;;;;;;;;;;;;;;;-142.75;100.00;76507.31;5055282;28;19944;-64
2022/07/31 04:38:48;;;;;;;;;;;;;;;-142.75;100.00;76505.34;5055080;28;19919;-64
2022/07/31 04:41:13;;;;;;;;;;;;;;;-142.75;100.00;76497.47;5055534;28;19913;-64
2022/07/31 04:43:39;;;;;;;;;;;;;;;-142.75;100.00;76495.50;5039693;28;19913;-64
2022/07/31 04:46:04;;;;;;;;;;;;;;;-142.75;100.00;76495.50;5039608;28;20404;-64
2022/07/31 04:48:29;;;;;;;;;;;;;;;-142.75;100.00;76499.44;5055371;28;20090;-64
2022/07/31 04:50:54;;;;;;;;;;;;;;;-142.75;100.00;76505.34;5055339;28;19975;-64
2022/07/31 04:53:19;;;;;;;;;;;;;;;-142.75;100.00;76499.44;5054680;28;20407;-64
2022/07/31 04:56:32;;;;;;;;;;;;;;;-142.75;100.00;76497.47;5054785;28;20383;-64
2022/07/31 04:58:30;;;;;;;;;;;;;;;-142.75;100.00;76493.53;5054381;28;19917;-64
2022/07/31 05:00:55;;;;;;;;;;;;;;;-142.75;100.00;76491.56;5055291;28;19924;-64
2022/07/31 05:03:21;;;;;;;;;;;;;;;-142.75;100.00;76495.50;5037273;28;19920;-64
2022/07/31 05:05:46;;;;;;;;;;;;;;;-142.75;100.00;76487.63;5054928;28;19917;-64
2022/07/31 05:08:11;;;;;;;;;;;;;;;-142.75;100.00;76493.53;5054829;28;19916;-64
2022/07/31 05:13:20;;;;;;;;;;;;;;;-142.75;100.00;76473.84;5054986;28;20109;-64
2022/07/31 05:15:45;;;;;;;;;;;;;;;-142.75;100.00;76475.81;5036692;28;19916;-64
2022/07/31 05:18:11;;;;;;;;;;;;;;;-142.75;100.00;76475.81;5054488;28;19913;-64
2022/07/31 05:20:36;;;;;;;;;;;;;;;-142.75;100.00;76471.88;5054714;28;19913;-64
2022/07/31 05:23:02;;;;;;;;;;;;;;;-142.75;100.00;76467.94;5054382;28;19981;-64
2022/07/31 05:25:27;;;;;;;;;;;;;;;-142.75;100.00;76465.97;5053818;28;19920;-64
2022/07/31 05:27:52;;;;;;;;;;;;;;;-142.75;100.00;76473.84;5053668;28;19919;-64
2022/07/31 05:30:17;;;;;;;;;;;;;;;-142.75;100.00;76477.78;5054079;28;19924;-64
2022/07/31 05:32:43;;;;;;;;;;;;;;;-142.75;100.00;76471.88;5053926;28;19920;-64
2022/07/31 05:35:08;;;;;;;;;;;;;;;-142.75;100.00;76475.81;5053984;28;19919;-65
2022/07/31 05:37:33;;;;;;;;;;;;;;;-142.75;100.00;76467.94;5058941;22;19925;-67
2022/07/31 05:39:58;;;;;;;;;;;;;;;-142.75;100.00;76464.00;5031856;28;19917;-66
2022/07/31 05:42:24;;;;;;;;;;;;;;;-142.75;100.00;76465.97;5033047;28;19913;-67
2022/07/31 05:44:49;;;;;;;;;;;;;;;-142.75;100.00;76464.00;5032887;28;19917;-67
2022/07/31 05:47:14;;;;;;;;;;;;;;;-142.75;100.00;76462.03;5014848;28;20305;-66
2022/07/31 05:49:39;;;;;;;;;;;;;;;-142.75;100.00;76460.06;5015123;28;19917;-66
2022/07/31 05:52:04;;;;;;;;;;;;;;;-142.75;100.00;76460.06;5032651;28;19913;-67
2022/07/31 05:54:30;;;;;;;;;;;;;;;-142.75;100.00;76448.25;5031828;28;19920;-66
2022/07/31 05:56:55;;;;;;;;;;;;;;;-142.75;100.00;76436.44;5032382;28;20397;-65
2022/07/31 05:59:20;;;;;;;;;;;;;;;-142.75;100.00;76424.63;5032730;28;19913;-65
2022/07/31 06:01:45;;;;;;;;;;;;;;;-142.75;100.00;76432.50;5032580;28;19917;-66
2022/07/31 06:04:11;;;;;;;;;;;;;;;-142.75;100.00;76428.56;5032645;28;19913;-66
2022/07/31 06:06:36;;;;;;;;;;;;;;;-142.75;100.00;76436.44;5032255;28;19917;-66
2022/07/31 06:09:01;;;;;;;;;;;;;;;-142.75;100.00;76444.31;5014788;28;19913;-66
2022/07/31 06:11:26;;;;;;;;;;;;;;;-142.75;100.00;76438.41;5032468;28;20429;-66
2022/07/31 06:13:51;;;;;;;;;;;;;;;-142.75;100.00;76434.47;5032496;28;20004;-66
2022/07/31 06:16:17;;;;;;;;;;;;;;;-142.75;100.00;76432.50;5032491;28;19913;-66
2022/07/31 06:18:42;;;;;;;;;;;;;;;-142.75;100.00;76432.50;5032100;28;19913;-66
2022/07/31 06:21:08;;;;;;;;;;;;;;;-142.75;100.00;76430.53;5032436;28;20008;-67
2022/07/31 06:23:33;;;;;;;;;;;;;;;-142.75;100.00;76432.50;5032290;28;20003;-65
2022/07/31 06:25:58;;;;;;;;;;;;;;;-142.75;100.00;76428.56;5032201;28;19923;-66
2022/07/31 06:28:24;;;;;;;;;;;;;;;-142.75;100.00;76430.53;5014305;28;19920;-66
2022/07/31 06:30:49;;;;;;;;;;;;;;;-142.75;100.00;76420.69;5032303;28;19975;-66
2022/07/31 06:33:14;;;;;;;;;;;;;;;-142.75;100.00;76416.75;5032231;28;19960;-65
2022/07/31 06:35:39;;;;;;;;;;;;;;;-142.75;100.00;76410.84;5032061;28;20390;-66
2022/07/31 06:38:04;;;;;;;;;;;;;;;-142.75;100.00;76420.69;5031895;28;19939;-66
2022/07/31 06:40:30;;;;;;;;;;;;;;;-142.75;100.00;76408.88;5032152;28;19913;-66
2022/07/31 06:42:55;;;;;;;;;;;;;;;-142.75;100.00;76404.94;5028895;28;19943;-66
2022/07/31 06:45:20;;;;;;;;;;;;;;;-142.75;100.00;76397.06;5013719;28;20501;-67
2022/07/31 06:47:45;;;;;;;;;;;;;;;-142.75;100.00;76385.25;5031585;28;19924;-66
2022/07/31 06:50:11;;;;;;;;;;;;;;;-142.75;100.00;76377.38;5031989;28;19913;-66
2022/07/31 06:52:36;;;;;;;;;;;;;;;-142.75;100.00;76365.56;5031915;28;19917;-65
2022/07/31 06:55:02;;;;;;;;;;;;;;;-142.75;100.00;76365.56;5031621;28;19913;-65
2022/07/31 06:57:27;;;;;;;;;;;;;;;-142.75;100.00;76371.47;5013634;28;19913;-66
2022/07/31 06:59:52;;;;;;;;;;;;;;;-142.75;100.00;76357.69;5014012;28;19967;-66
2022/07/31 07:02:17;;;;;;;;;;;;;;;-142.75;100.00;76357.69;5031846;28;19920;-66
2022/07/31 07:04:43;;;;;;;;;;;;;;;-142.75;100.00;76359.66;5031609;28;19917;-66
2022/07/31 07:07:08;;;;;;;;;;;;;;;-142.75;100.00;76349.81;5034367;28;19928;-66
2022/07/31 07:09:33;;;;;;;;;;;;;;;-142.75;100.00;76345.91;5035456;28;19987;-66
2022/07/31 07:11:58;;;;;;;;;;;;;;;-142.75;100.00;76343.94;5035475;28;20342;-66
2022/07/31 07:14:23;;;;;;;;;;;;;;;-142.75;100.00;76334.09;5035347;28;19956;-65
2022/07/31 07:16:49;;;;;;;;;;;;;;;-142.75;100.00;76322.28;5034984;28;20287;-66
2022/07/31 07:19:14;;;;;;;;;;;;;;;-142.75;100.00;76314.41;5017780;28;19920;-66
2022/07/31 07:21:39;;;;;;;;;;;;;;;-142.75;100.00;76306.53;5035660;28;19920;-66
2022/07/31 07:24:04;;;;;;;;;;;;;;;-142.75;100.00;76304.56;5035492;28;19913;-65
2022/07/31 07:26:30;;;;;;;;;;;;;;;-142.75;100.00;76290.78;5035174;28;19917;-66
2022/07/31 07:28:55;;;;;;;;;;;;;;;-142.75;100.00;76286.84;5035056;28;19952;-66
2022/07/31 07:31:21;;;;;;;;;;;;;;;-142.75;100.00;76286.84;5035451;28;19967;-66
2022/07/31 07:33:47;;;;;;;;;;;;;;;-142.75;100.00;76298.66;5035412;28;19924;-66
2022/07/31 07:36:12;;;;;;;;;;;;;;;-142.75;100.00;76294.72;5017258;28;19917;-66
2022/07/31 07:38:38;;;;;;;;;;;;;;;-142.75;100.00;76306.53;5034974;28;19913;-67
2022/07/31 07:41:03;;;;;;;;;;;;;;;-142.75;100.00;76296.69;5035245;28;20456;-66
2022/07/31 07:43:28;;;;;;;;;;;;;;;-142.75;100.00;76296.69;5017335;28;19952;-66
2022/07/31 07:45:53;;;;;;;;;;;;;;;-142.75;100.00;76302.59;5017320;28;20028;-66
2022/07/31 07:48:18;;;;;;;;;;;;;;;-142.75;100.00;76302.59;5034786;28;19920;-66
2022/07/31 07:50:44;;;;;;;;;;;;;;;-142.75;100.00;76300.63;5017402;28;19992;-66
2022/07/31 07:53:11;;;;;;;;;;;;;;;-142.75;100.00;76302.59;5034979;28;20396;-67
2022/07/31 07:55:36;;;;;;;;;;;;;;;-142.75;100.00;76308.50;5034987;28;19913;-66
2022/07/31 07:58:02;;;;;;;;;;;;;;;-142.75;100.00;76310.47;5034591;28;19920;-66
2022/07/31 08:00:27;;;;;;;;;;;;;;;-142.75;100.00;76318.34;5035002;28;19917;-66
2022/07/31 08:02:53;;;;;;;;;;;;;;;-142.75;100.00;76318.34;5034874;28;20346;-66
2022/07/31 08:05:18;;;;;;;;;;;;;;;-142.75;100.00;76314.41;5034724;28;19917;-66
2022/07/31 08:07:44;;;;;;;;;;;;;;;-142.75;100.00;76314.41;5034350;28;19920;-66
2022/07/31 08:10:09;;;;;;;;;;;;;;;-142.75;100.00;76310.47;5034712;28;20398;-67
2022/07/31 08:12:34;;;;;;;;;;;;;;;-142.75;100.00;76306.53;5034611;28;20000;-66
2022/07/31 08:15:00;;;;;;;;;;;;;;;-142.75;100.00;76302.59;5034687;28;20400;-66
2022/07/31 08:17:25;;;;;;;;;;;;;;;-142.75;100.00;76294.72;5033260;28;19913;-66
2022/07/31 08:19:50;;;;;;;;;;;;;;;-142.75;100.00;76286.84;5016823;28;19992;-67
2022/07/31 08:22:16;;;;;;;;;;;;;;;-142.75;100.00;76277.00;5034479;28;19917;-66
2022/07/31 08:24:41;;;;;;;;;;;;;;;-142.75;100.00;76259.28;5034254;28;20012;-66
2022/07/31 08:29:51;;;;;;;;;;;;;;;-142.75;100.00;76259.28;5033960;28;19959;-66
2022/07/31 08:32:17;;;;;;;;;;;;;;;-142.75;100.00;76255.34;5033074;28;20282;-66
2022/07/31 08:34:42;;;;;;;;;;;;;;;-142.75;100.00;76249.44;5015541;28;19971;-67
2022/07/31 08:37:07;;;;;;;;;;;;;;;-142.75;100.00;76235.66;5032772;28;19925;-66
2022/07/31 08:39:32;;;;;;;;;;;;;;;-142.75;100.00;76227.78;5033192;28;20267;-66
2022/07/31 08:41:58;;;;;;;;;;;;;;;-142.75;100.00;76233.69;5033309;28;20299;-66
2022/07/31 08:44:23;;;;;;;;;;;;;;;-142.75;100.00;76214.00;5032961;28;19916;-66
2022/07/31 08:46:51;;;;;;;;;;;;;;;-142.75;100.00;76221.88;5032624;28;19913;-66
2022/07/31 08:49:16;;;;;;;;;;;;;;;-142.75;100.00;76223.84;5033199;28;19979;-66
2022/07/31 08:51:42;;;;;;;;;;;;;;;-142.75;100.00;76215.97;5032980;28;19975;-66
2022/07/31 08:54:09;;;;;;;;;;;;;;;-142.75;100.00;76215.97;5032979;28;20004;-66
2022/07/31 08:56:35;;;;;;;;;;;;;;;-142.75;100.00;76235.66;5032605;28;19913;-65
2022/07/31 08:59:00;;;;;;;;;;;;;;;-142.75;100.00;76239.59;5032921;28;19913;-65
2022/07/31 09:01:26;;;;;;;;;;;;;;;-142.75;100.00;76223.84;5032577;28;19939;-67
2022/07/31 09:03:52;;;;;;;;;;;;;;;-142.75;100.00;76221.88;5032845;28;19923;-65
2022/07/31 09:06:17;;;;;;;;;;;;;;;-142.75;100.00;76208.09;5032319;28;19932;-66
2022/07/31 09:08:42;;;;;;;;;;;;;;;-142.75;100.00;76194.34;5032274;28;19935;-66
2022/07/31 09:11:11;;;;;;;;;;;;;;;-142.75;100.00;76196.31;5032850;28;20393;-65
2022/07/31 09:13:37;;;;;;;;;;;;;;;-142.75;100.00;76182.53;5014805;28;19917;-66
2022/07/31 09:16:02;;;;;;;;;;;;;;;-142.75;100.00;76172.69;5032421;28;19920;-65
2022/07/31 09:18:27;;;;;;;;;;;;;;;-142.75;100.00;76141.19;5032200;28;19967;-66
2022/07/31 09:21:00;;;;;;;;;;;;;;;-142.75;100.00;76135.28;5032347;28;19920;-66
2022/07/31 09:23:26;;;;;;;;;;;;;;;-142.75;100.00;76113.63;5032439;28;19967;-66
2022/07/31 09:25:53;;;;;;;;;;;;;;;-142.75;100.00;76119.53;5032280;28;19917;-64
2022/07/31 09:28:18;;;;;;;;;;;;;;;-142.75;100.00;76135.28;5031933;28;19913;-66
2022/07/31 09:30:52;;;;;;;;;;;;;;;-142.75;100.00;76137.25;5032664;28;19950;-66
2022/07/31 09:33:18;;;;;;;;;;;;;;;-142.75;100.00;76145.13;5033136;28;19913;-66
2022/07/31 09:35:47;;;;;;;;;;;;;;;-142.75;100.00;76149.06;5032822;28;19913;-66
2022/07/31 09:38:12;;;;;;;;;;;;;;;-142.75;100.00;76158.91;5032811;28;19920;-66
2022/07/31 09:40:42;;;;;;;;;;;;;;;-142.75;100.00;76160.88;5033313;28;20281;-66
2022/07/31 09:43:12;;;;;;;;;;;;;;;-142.75;100.00;76168.75;5033000;28;19959;-66
2022/07/31 09:45:38;;;;;;;;;;;;;;;-142.75;100.00;76184.50;5032832;28;20394;-65
2022/07/31 09:48:11;;;;;;;;;;;;;;;-142.75;100.00;76206.13;5032574;28;19948;-66
2022/07/31 09:50:36;;;;;;;;;;;;;;;-142.75;100.00;76215.97;5033087;28;19917;-65
2022/07/31 09:53:01;;;;;;;;;;;;;;;-142.75;100.00;76221.88;5032910;28;20306;-65
2022/07/31 09:55:27;;;;;;;;;;;;;;;-142.75;100.00;76229.75;5033018;28;20293;-64
2022/07/31 09:57:53;;;;;;;;;;;;;;;-142.75;100.00;76235.66;5032706;28;19913;-65
2022/07/31 10:00:19;;;;;;;;;;;;;;;-142.75;100.00;76243.53;5032943;28;19957;-66
2022/07/31 10:02:44;;;;;;;;;;;;;;;-142.75;100.00;76249.44;5032217;28;20394;-67
2022/07/31 10:05:10;;;;;;;;;;;;;;;-142.75;100.00;76245.50;5032838;28;19918;-66
2022/07/31 10:07:36;;;;;;;;;;;;;;;-142.75;100.00;76247.47;5032029;28;19913;-66
2022/07/31 10:10:03;;;;;;;;;;;;;;;-142.75;100.00;76243.53;5031869;28;19913;-65
2022/07/31 10:12:29;;;;;;;;;;;;;;;-142.75;100.00;76257.31;5031925;28;19948;-65
2022/07/31 10:14:57;;;;;;;;;;;;;;;-142.75;100.00;76259.28;5028374;28;20333;-67
2022/07/31 10:17:25;;;;;;;;;;;;;;;-142.75;100.00;76247.47;5030073;28;19947;-67
2022/07/31 10:19:52;;;;;;;;;;;;;;;-142.75;100.00;76247.47;5032126;28;19913;-66
2022/07/31 10:22:19;;;;;;;;;;;;;;;-142.75;100.00;76255.34;5032840;28;20004;-65
2022/07/31 10:24:46;;;;;;;;;;;;;;;-142.75;100.00;76247.47;5014668;28;19917;-65
2022/07/31 10:27:13;;;;;;;;;;;;;;;-142.75;100.00;76227.78;5032048;28;19913;-65
2022/07/31 10:29:38;;;;;;;;;;;;;;;-142.75;100.00;76235.66;5032357;28;19913;-65
2022/07/31 10:32:04;;;;;;;;;;;;;;;-142.75;100.00;76233.69;5032345;28;20318;-66
2022/07/31 10:34:31;;;;;;;;;;;;;;;-142.75;100.00;76235.66;5032404;28;19988;-66
2022/07/31 10:37:00;;;;;;;;;;;;;;;-142.75;100.00;76235.66;5032218;28;20386;-66
2022/07/31 10:39:41;;;;;;;;;;;;;;;-142.75;100.00;76223.84;5032226;28;19920;-65
2022/07/31 10:42:18;;;;;;;;;;;;;;;-142.75;100.00;76227.78;5031685;28;20378;-66
2022/07/31 10:44:48;;;;;;;;;;;;;;;-142.75;100.00;76235.66;5032304;28;20298;-66
2022/07/31 10:47:13;;;;;;;;;;;;;;;-142.75;100.00;76219.91;5031944;28;19913;-66
2022/07/31 10:49:43;;;;;;;;;;;;;;;-142.75;100.00;76223.84;5031329;28;20392;-65
2022/07/31 10:52:08;;;;;;;;;;;;;;;-142.75;100.00;76219.91;5012607;28;19914;-65
2022/07/31 10:54:41;;;;;;;;;;;;;;;-142.75;100.00;76210.06;5030587;28;19913;-66
2022/07/31 10:57:06;;;;;;;;;;;;;;;-142.75;100.00;76174.66;5031838;28;20317;-66
2022/07/31 10:59:31;;;;;;;;;;;;;;;-142.75;100.00;76115.59;5032315;28;20008;-66
2022/07/31 11:01:57;;;;;;;;;;;;;;;-142.75;100.00;76082.13;5032225;28;19913;-66
2022/07/31 11:04:29;;;;;;;;;;;;;;;-142.75;100.00;76050.66;5032135;28;19913;-66
2022/07/31 11:06:55;;;;;;;;;;;;;;;-142.75;100.00;76015.22;5031773;28;19968;-66
2022/07/31 11:09:20;;;;;;;;;;;;;;;-142.75;100.00;76009.31;5032275;28;20298;-66
2022/07/31 11:11:45;;;;;;;;;;;;;;;-142.75;100.00;76027.03;5032182;28;19914;-66
2022/07/31 11:14:11;;;;;;;;;;;;;;;-142.75;100.00;76042.78;5031999;28;20007;-66
2022/07/31 11:16:47;;;;;;;;;;;;;;;-142.75;100.00;76054.59;5031810;28;20004;-66
2022/07/31 11:19:12;;;;;;;;;;;;;;;-142.75;100.00;76058.53;5032109;28;19920;-66
2022/07/31 11:21:39;;;;;;;;;;;;;;;-142.75;100.00;76074.25;5031172;28;19995;-66
2022/07/31 11:24:18;;;;;;;;;;;;;;;-142.75;100.00;76082.13;5031025;28;20051;-66
2022/07/31 11:26:58;;;;;;;;;;;;;;;-142.75;100.00;76093.94;5029156;28;19921;-67
2022/07/31 11:29:31;;;;;;;;;;;;;;;-142.75;100.00;76080.16;5029715;28;19940;-68
2022/07/31 11:32:00;;;;;;;;;;;;;;;-142.75;100.00;76064.44;5014177;28;20284;-65
2022/07/31 11:34:25;;;;;;;;;;;;;;;-142.75;100.00;76050.66;5032034;28;19917;-65
2022/07/31 11:36:53;;;;;;;;;;;;;;;-142.75;100.00;76048.69;5045742;22;19902;-55
2022/07/31 11:39:18;;;;;;;;;;;;;;;-142.75;100.00;76050.66;4992188;28;19930;-64
2022/07/31 11:41:43;;;;;;;;;;;;;;;-142.75;100.00;76040.81;4992460;28;20399;-65
2022/07/31 11:44:08;;;;;;;;;;;;;;;-142.75;100.00;75991.59;4993004;28;19920;-64
2022/07/31 11:46:36;;;;;;;;;;;;;;;-142.75;100.00;75987.66;4992581;28;20334;-65
2022/07/31 11:49:01;;;;;;;;;;;;;;;-142.75;100.00;75987.66;4992764;28;20049;-64
2022/07/31 11:51:27;;;;;;;;;;;;;;;-142.75;100.00;75999.47;4992897;28;20158;-64
2022/07/31 11:53:56;;;;;;;;;;;;;;;-142.75;100.00;76015.22;4995326;28;19921;-64
2022/07/31 11:56:22;;;;;;;;;;;;;;;-142.75;100.00;76023.09;4996601;28;19960;-65
2022/07/31 11:58:48;;;;;;;;;;;;;;;-142.75;100.00;76027.03;4996448;28;19913;-64
2022/07/31 12:01:13;;;;;;;;;;;;;;;-142.75;100.00;76019.16;4996529;28;19914;-64
2022/07/31 12:03:39;;;;;;;;;;;;;;;-142.75;100.00;76011.28;4996448;28;19914;-64
2022/07/31 12:06:05;;;;;;;;;;;;;;;-142.75;100.00;75991.59;4996413;28;19953;-65
2022/07/31 12:08:31;;;;;;;;;;;;;;;-142.75;100.00;75991.59;4996168;28;19913;-65
2022/07/31 12:10:57;;;;;;;;;;;;;;;-142.75;100.00;76005.38;4997013;28;19960;-65
2022/07/31 12:13:23;;;;;;;;;;;;;;;-142.75;100.00;76005.38;4996914;28;20004;-65
2022/07/31 12:16:00;;;;;;;;;;;;;;;-142.75;100.00;75979.78;4997114;28;19918;-65
2022/07/31 12:18:26;;;;;;;;;;;;;;;-142.75;100.00;75975.84;4997275;28;19914;-65